sensor_id;sensor_type;location;lat;lon;timestamp;P1;durP1;ratioP1;P2;durP2;ratioP2
13981;SDS011;7065;50.880;5.502;2023-02-18T00:01:09;24.98;;;16.33;;
13981;SDS011;7065;50.880;5.502;2023-02-18T00:03:36;24.60;;;16.38;;
13981;SDS011;7065;50.880;5.502;2023-02-18T00:06:09;21.45;;;14.82;;
13981;SDS011;7065;50.880;5.502;2023-02-18T00:09:03;21.75;;;15.80;;
13981;SDS011;7065;50.880;5.502;2023-02-18T00:11:31;22.98;;;14.60;;
13981;SDS011;7065;50.880;5.502;2023-02-18T00:13:59;23.05;;;14.40;;
13981;SDS011;7065;50.880;5.502;2023-02-18T00:16:27;22.45;;;14.30;;
13981;SDS011;7065;50.880;5.502;2023-02-18T00:18:55;22.15;;;14.93;;
13981;SDS011;7065;50.880;5.502;2023-02-18T00:21:21;20.75;;;14.95;;
13981;SDS011;7065;50.880;5.502;2023-02-18T00:23:47;23.00;;;15.40;;
13981;SDS011;7065;50.880;5.502;2023-02-18T00:26:13;23.77;;;14.93;;
13981;SDS011;7065;50.880;5.502;2023-02-18T00:28:40;25.95;;;16.13;;
13981;SDS011;7065;50.880;5.502;2023-02-18T00:31:11;23.80;;;15.35;;
13981;SDS011;7065;50.880;5.502;2023-02-18T00:33:38;24.90;;;15.57;;
13981;SDS011;7065;50.880;5.502;2023-02-18T00:36:06;22.38;;;14.85;;
13981;SDS011;7065;50.880;5.502;2023-02-18T00:38:34;24.67;;;15.07;;
13981;SDS011;7065;50.880;5.502;2023-02-18T00:41:00;22.48;;;14.63;;
13981;SDS011;7065;50.880;5.502;2023-02-18T00:43:26;21.23;;;14.23;;
13981;SDS011;7065;50.880;5.502;2023-02-18T00:45:52;22.35;;;13.98;;
13981;SDS011;7065;50.880;5.502;2023-02-18T00:48:18;20.73;;;13.88;;
13981;SDS011;7065;50.880;5.502;2023-02-18T00:50:44;20.27;;;13.13;;
13981;SDS011;7065;50.880;5.502;2023-02-18T00:53:10;20.25;;;12.88;;
13981;SDS011;7065;50.880;5.502;2023-02-18T00:55:40;19.70;;;12.88;;
13981;SDS011;7065;50.880;5.502;2023-02-18T00:58:07;19.65;;;12.23;;
13981;SDS011;7065;50.880;5.502;2023-02-18T01:00:33;21.00;;;12.25;;
13981;SDS011;7065;50.880;5.502;2023-02-18T01:02:58;20.33;;;12.00;;
13981;SDS011;7065;50.880;5.502;2023-02-18T01:05:24;16.98;;;11.32;;
13981;SDS011;7065;50.880;5.502;2023-02-18T01:07:50;17.58;;;11.30;;
13981;SDS011;7065;50.880;5.502;2023-02-18T01:10:15;17.73;;;10.98;;
13981;SDS011;7065;50.880;5.502;2023-02-18T01:12:41;16.20;;;11.13;;
13981;SDS011;7065;50.880;5.502;2023-02-18T01:15:07;16.50;;;10.32;;
13981;SDS011;7065;50.880;5.502;2023-02-18T01:17:33;16.67;;;10.90;;
13981;SDS011;7065;50.880;5.502;2023-02-18T01:19:59;15.55;;;10.30;;
13981;SDS011;7065;50.880;5.502;2023-02-18T01:22:25;15.77;;;10.32;;
13981;SDS011;7065;50.880;5.502;2023-02-18T01:24:50;16.70;;;9.85;;
13981;SDS011;7065;50.880;5.502;2023-02-18T01:27:16;14.43;;;9.57;;
13981;SDS011;7065;50.880;5.502;2023-02-18T01:29:42;15.35;;;9.82;;
13981;SDS011;7065;50.880;5.502;2023-02-18T01:32:08;13.70;;;8.63;;
13981;SDS011;7065;50.880;5.502;2023-02-18T01:34:34;12.82;;;8.43;;
13981;SDS011;7065;50.880;5.502;2023-02-18T01:37:00;12.68;;;8.38;;
13981;SDS011;7065;50.880;5.502;2023-02-18T01:39:26;12.07;;;8.50;;
13981;SDS011;7065;50.880;5.502;2023-02-18T01:41:51;10.63;;;7.15;;
13981;SDS011;7065;50.880;5.502;2023-02-18T01:44:22;11.15;;;7.40;;
13981;SDS011;7065;50.880;5.502;2023-02-18T01:46:50;8.45;;;6.22;;
13981;SDS011;7065;50.880;5.502;2023-02-18T01:49:24;7.88;;;5.82;;
13981;SDS011;7065;50.880;5.502;2023-02-18T01:51:53;9.98;;;6.03;;
13981;SDS011;7065;50.880;5.502;2023-02-18T01:56:56;6.30;;;5.22;;
13981;SDS011;7065;50.880;5.502;2023-02-18T01:59:27;6.20;;;4.63;;
13981;SDS011;7065;50.880;5.502;2023-02-18T02:01:57;5.45;;;4.70;;
13981;SDS011;7065;50.880;5.502;2023-02-18T02:04:23;5.50;;;4.13;;
13981;SDS011;7065;50.880;5.502;2023-02-18T02:06:49;4.22;;;3.83;;
13981;SDS011;7065;50.880;5.502;2023-02-18T02:09:16;4.10;;;3.53;;
13981;SDS011;7065;50.880;5.502;2023-02-18T02:17:16;3.38;;;2.78;;
13981;SDS011;7065;50.880;5.502;2023-02-18T02:39:09;3.03;;;2.75;;
13981;SDS011;7065;50.880;5.502;2023-02-18T02:44:50;3.17;;;2.88;;
13981;SDS011;7065;50.880;5.502;2023-02-18T02:47:31;3.20;;;2.90;;
13981;SDS011;7065;50.880;5.502;2023-02-18T02:50:07;3.30;;;3.00;;
13981;SDS011;7065;50.880;5.502;2023-02-18T02:52:45;3.53;;;3.22;;
13981;SDS011;7065;50.880;5.502;2023-02-18T02:55:14;4.32;;;3.60;;
13981;SDS011;7065;50.880;5.502;2023-02-18T02:57:47;3.28;;;3.00;;
13981;SDS011;7065;50.880;5.502;2023-02-18T03:00:16;4.13;;;3.72;;
13981;SDS011;7065;50.880;5.502;2023-02-18T03:11:23;5.45;;;3.75;;
13981;SDS011;7065;50.880;5.502;2023-02-18T03:13:55;3.40;;;3.10;;
13981;SDS011;7065;50.880;5.502;2023-02-18T03:16:34;5.03;;;3.70;;
13981;SDS011;7065;50.880;5.502;2023-02-18T03:19:13;4.88;;;4.35;;
13981;SDS011;7065;50.880;5.502;2023-02-18T03:24:17;4.78;;;4.28;;
13981;SDS011;7065;50.880;5.502;2023-02-18T03:26:56;4.20;;;3.60;;
13981;SDS011;7065;50.880;5.502;2023-02-18T03:29:26;4.88;;;4.38;;
13981;SDS011;7065;50.880;5.502;2023-02-18T03:31:54;5.55;;;4.38;;
13981;SDS011;7065;50.880;5.502;2023-02-18T03:34:25;4.43;;;3.95;;
13981;SDS011;7065;50.880;5.502;2023-02-18T03:36:55;4.30;;;3.72;;
13981;SDS011;7065;50.880;5.502;2023-02-18T03:39:23;4.22;;;3.83;;
13981;SDS011;7065;50.880;5.502;2023-02-18T03:41:52;3.50;;;3.20;;
13981;SDS011;7065;50.880;5.502;2023-02-18T03:44:18;3.45;;;3.13;;
13981;SDS011;7065;50.880;5.502;2023-02-18T03:46:44;3.50;;;3.20;;
13981;SDS011;7065;50.880;5.502;2023-02-18T03:49:11;3.50;;;3.20;;
13981;SDS011;7065;50.880;5.502;2023-02-18T03:51:38;3.70;;;3.40;;
13981;SDS011;7065;50.880;5.502;2023-02-18T03:54:04;3.30;;;3.00;;
13981;SDS011;7065;50.880;5.502;2023-02-18T03:56:29;3.78;;;2.85;;
13981;SDS011;7065;50.880;5.502;2023-02-18T03:58:55;3.92;;;3.47;;
13981;SDS011;7065;50.880;5.502;2023-02-18T04:01:21;3.10;;;2.80;;
13981;SDS011;7065;50.880;5.502;2023-02-18T04:03:47;3.05;;;2.80;;
13981;SDS011;7065;50.880;5.502;2023-02-18T04:06:12;3.28;;;2.97;;
13981;SDS011;7065;50.880;5.502;2023-02-18T04:08:38;3.85;;;3.53;;
13981;SDS011;7065;50.880;5.502;2023-02-18T04:11:04;4.38;;;3.38;;
13981;SDS011;7065;50.880;5.502;2023-02-18T04:13:30;3.65;;;3.35;;
13981;SDS011;7065;50.880;5.502;2023-02-18T04:15:56;4.50;;;3.13;;
13981;SDS011;7065;50.880;5.502;2023-02-18T04:18:22;3.88;;;3.33;;
13981;SDS011;7065;50.880;5.502;2023-02-18T04:20:48;3.80;;;3.30;;
13981;SDS011;7065;50.880;5.502;2023-02-18T04:23:14;4.10;;;3.60;;
13981;SDS011;7065;50.880;5.502;2023-02-18T04:25:40;4.18;;;3.78;;
13981;SDS011;7065;50.880;5.502;2023-02-18T04:28:06;3.63;;;3.25;;
13981;SDS011;7065;50.880;5.502;2023-02-18T04:30:32;4.95;;;3.80;;
13981;SDS011;7065;50.880;5.502;2023-02-18T04:32:57;4.75;;;4.35;;
13981;SDS011;7065;50.880;5.502;2023-02-18T04:35:23;5.75;;;4.63;;
13981;SDS011;7065;50.880;5.502;2023-02-18T04:37:49;4.82;;;4.07;;
13981;SDS011;7065;50.880;5.502;2023-02-18T04:40:15;5.30;;;4.80;;
13981;SDS011;7065;50.880;5.502;2023-02-18T04:42:41;5.95;;;5.05;;
13981;SDS011;7065;50.880;5.502;2023-02-18T04:45:06;6.30;;;5.70;;
13981;SDS011;7065;50.880;5.502;2023-02-18T04:47:32;6.30;;;4.90;;
13981;SDS011;7065;50.880;5.502;2023-02-18T04:49:58;5.75;;;5.10;;
13981;SDS011;7065;50.880;5.502;2023-02-18T04:52:24;5.97;;;5.30;;
13981;SDS011;7065;50.880;5.502;2023-02-18T04:54:50;5.60;;;5.03;;
13981;SDS011;7065;50.880;5.502;2023-02-18T04:57:16;5.45;;;4.90;;
13981;SDS011;7065;50.880;5.502;2023-02-18T04:59:42;5.13;;;4.13;;
13981;SDS011;7065;50.880;5.502;2023-02-18T05:02:08;4.68;;;4.18;;
13981;SDS011;7065;50.880;5.502;2023-02-18T05:04:34;4.38;;;3.58;;
13981;SDS011;7065;50.880;5.502;2023-02-18T05:07:00;3.25;;;3.05;;
13981;SDS011;7065;50.880;5.502;2023-02-18T05:09:26;3.50;;;3.20;;
13981;SDS011;7065;50.880;5.502;2023-02-18T05:11:51;3.53;;;3.22;;
13981;SDS011;7065;50.880;5.502;2023-02-18T05:14:17;3.25;;;3.05;;
13981;SDS011;7065;50.880;5.502;2023-02-18T05:16:43;3.90;;;3.33;;
13981;SDS011;7065;50.880;5.502;2023-02-18T05:19:09;4.38;;;3.47;;
13981;SDS011;7065;50.880;5.502;2023-02-18T05:21:41;2.60;;;2.40;;
13981;SDS011;7065;50.880;5.502;2023-02-18T05:24:07;3.15;;;2.80;;
13981;SDS011;7065;50.880;5.502;2023-02-18T05:26:32;2.78;;;2.50;;
13981;SDS011;7065;50.880;5.502;2023-02-18T05:28:58;3.47;;;2.85;;
13981;SDS011;7065;50.880;5.502;2023-02-18T05:31:24;2.83;;;2.63;;
13981;SDS011;7065;50.880;5.502;2023-02-18T05:33:50;2.78;;;2.50;;
13981;SDS011;7065;50.880;5.502;2023-02-18T05:36:16;2.92;;;2.70;;
13981;SDS011;7065;50.880;5.502;2023-02-18T05:38:42;2.80;;;2.50;;
13981;SDS011;7065;50.880;5.502;2023-02-18T05:41:08;3.10;;;2.80;;
13981;SDS011;7065;50.880;5.502;2023-02-18T05:43:33;3.08;;;2.60;;
13981;SDS011;7065;50.880;5.502;2023-02-18T05:46:17;3.30;;;2.85;;
13981;SDS011;7065;50.880;5.502;2023-02-18T05:48:44;3.28;;;2.97;;
13981;SDS011;7065;50.880;5.502;2023-02-18T05:51:09;3.20;;;2.90;;
13981;SDS011;7065;50.880;5.502;2023-02-18T05:53:36;3.20;;;2.90;;
13981;SDS011;7065;50.880;5.502;2023-02-18T05:56:01;4.13;;;2.85;;
13981;SDS011;7065;50.880;5.502;2023-02-18T05:58:27;3.33;;;3.03;;
13981;SDS011;7065;50.880;5.502;2023-02-18T06:00:53;3.17;;;2.85;;
13981;SDS011;7065;50.880;5.502;2023-02-18T06:03:19;3.42;;;2.78;;
13981;SDS011;7065;50.880;5.502;2023-02-18T06:05:44;4.15;;;2.80;;
13981;SDS011;7065;50.880;5.502;2023-02-18T06:08:17;2.78;;;2.40;;
13981;SDS011;7065;50.880;5.502;2023-02-18T06:10:44;2.85;;;2.65;;
13981;SDS011;7065;50.880;5.502;2023-02-18T06:13:11;2.75;;;2.20;;
13981;SDS011;7065;50.880;5.502;2023-02-18T06:15:37;3.17;;;2.78;;
13981;SDS011;7065;50.880;5.502;2023-02-18T06:18:03;3.00;;;2.42;;
13981;SDS011;7065;50.880;5.502;2023-02-18T06:20:30;2.40;;;2.20;;
13981;SDS011;7065;50.880;5.502;2023-02-18T06:22:56;2.42;;;2.22;;
13981;SDS011;7065;50.880;5.502;2023-02-18T06:25:22;3.35;;;2.58;;
13981;SDS011;7065;50.880;5.502;2023-02-18T06:27:48;2.30;;;2.10;;
13981;SDS011;7065;50.880;5.502;2023-02-18T06:30:13;2.88;;;2.17;;
13981;SDS011;7065;50.880;5.502;2023-02-18T06:32:39;3.00;;;2.70;;
13981;SDS011;7065;50.880;5.502;2023-02-18T06:35:05;3.08;;;2.28;;
13981;SDS011;7065;50.880;5.502;2023-02-18T06:37:31;4.18;;;2.60;;
13981;SDS011;7065;50.880;5.502;2023-02-18T06:39:57;2.42;;;2.20;;
13981;SDS011;7065;50.880;5.502;2023-02-18T06:42:22;3.05;;;2.35;;
13981;SDS011;7065;50.880;5.502;2023-02-18T06:44:48;2.50;;;2.10;;
13981;SDS011;7065;50.880;5.502;2023-02-18T06:47:13;3.67;;;2.35;;
13981;SDS011;7065;50.880;5.502;2023-02-18T06:49:39;2.30;;;2.10;;
13981;SDS011;7065;50.880;5.502;2023-02-18T06:52:05;2.58;;;2.10;;
13981;SDS011;7065;50.880;5.502;2023-02-18T06:54:31;3.42;;;2.53;;
13981;SDS011;7065;50.880;5.502;2023-02-18T06:56:57;3.70;;;2.20;;
13981;SDS011;7065;50.880;5.502;2023-02-18T06:59:23;2.80;;;2.40;;
13981;SDS011;7065;50.880;5.502;2023-02-18T07:01:49;3.53;;;2.15;;
13981;SDS011;7065;50.880;5.502;2023-02-18T07:04:15;3.25;;;2.20;;
13981;SDS011;7065;50.880;5.502;2023-02-18T07:06:41;4.35;;;2.53;;
13981;SDS011;7065;50.880;5.502;2023-02-18T07:09:07;4.93;;;2.30;;
13981;SDS011;7065;50.880;5.502;2023-02-18T07:11:33;6.43;;;2.53;;
13981;SDS011;7065;50.880;5.502;2023-02-18T07:13:59;5.55;;;2.75;;
13981;SDS011;7065;50.880;5.502;2023-02-18T07:16:24;4.45;;;2.22;;
13981;SDS011;7065;50.880;5.502;2023-02-18T07:18:50;6.40;;;2.58;;
13981;SDS011;7065;50.880;5.502;2023-02-18T07:21:16;8.63;;;2.80;;
13981;SDS011;7065;50.880;5.502;2023-02-18T07:23:41;7.90;;;3.22;;
13981;SDS011;7065;50.880;5.502;2023-02-18T07:26:08;8.40;;;2.88;;
13981;SDS011;7065;50.880;5.502;2023-02-18T07:28:36;7.65;;;2.90;;
13981;SDS011;7065;50.880;5.502;2023-02-18T07:31:02;8.68;;;3.22;;
13981;SDS011;7065;50.880;5.502;2023-02-18T07:33:28;10.45;;;2.58;;
13981;SDS011;7065;50.880;5.502;2023-02-18T07:35:55;6.35;;;2.50;;
13981;SDS011;7065;50.880;5.502;2023-02-18T07:38:22;5.15;;;2.65;;
13981;SDS011;7065;50.880;5.502;2023-02-18T07:40:49;7.47;;;2.30;;
13981;SDS011;7065;50.880;5.502;2023-02-18T07:43:15;6.13;;;2.92;;
13981;SDS011;7065;50.880;5.502;2023-02-18T07:45:42;8.52;;;2.20;;
13981;SDS011;7065;50.880;5.502;2023-02-18T07:48:07;9.55;;;2.25;;
13981;SDS011;7065;50.880;5.502;2023-02-18T07:50:33;6.82;;;2.40;;
13981;SDS011;7065;50.880;5.502;2023-02-18T07:53:01;5.70;;;2.08;;
13981;SDS011;7065;50.880;5.502;2023-02-18T07:55:28;9.52;;;3.13;;
13981;SDS011;7065;50.880;5.502;2023-02-18T07:58:13;11.23;;;2.55;;
13981;SDS011;7065;50.880;5.502;2023-02-18T08:00:40;7.07;;;2.30;;
13981;SDS011;7065;50.880;5.502;2023-02-18T08:03:05;6.60;;;2.22;;
13981;SDS011;7065;50.880;5.502;2023-02-18T08:05:31;5.93;;;2.38;;
13981;SDS011;7065;50.880;5.502;2023-02-18T08:07:57;6.90;;;2.63;;
13981;SDS011;7065;50.880;5.502;2023-02-18T08:10:22;5.85;;;2.63;;
13981;SDS011;7065;50.880;5.502;2023-02-18T08:12:49;6.57;;;2.60;;
13981;SDS011;7065;50.880;5.502;2023-02-18T08:15:15;7.82;;;2.28;;
13981;SDS011;7065;50.880;5.502;2023-02-18T08:17:40;8.00;;;2.17;;
13981;SDS011;7065;50.880;5.502;2023-02-18T08:20:06;10.07;;;2.60;;
13981;SDS011;7065;50.880;5.502;2023-02-18T08:22:32;11.30;;;2.90;;
13981;SDS011;7065;50.880;5.502;2023-02-18T08:24:58;10.55;;;2.80;;
13981;SDS011;7065;50.880;5.502;2023-02-18T08:27:24;11.70;;;2.85;;
13981;SDS011;7065;50.880;5.502;2023-02-18T08:29:50;8.88;;;2.88;;
13981;SDS011;7065;50.880;5.502;2023-02-18T08:32:16;8.95;;;2.47;;
13981;SDS011;7065;50.880;5.502;2023-02-18T08:34:42;6.75;;;2.85;;
13981;SDS011;7065;50.880;5.502;2023-02-18T08:37:08;5.07;;;2.20;;
13981;SDS011;7065;50.880;5.502;2023-02-18T08:39:34;7.50;;;2.65;;
13981;SDS011;7065;50.880;5.502;2023-02-18T08:42:00;7.72;;;2.30;;
13981;SDS011;7065;50.880;5.502;2023-02-18T08:44:26;8.65;;;2.55;;
13981;SDS011;7065;50.880;5.502;2023-02-18T08:46:52;8.20;;;2.88;;
13981;SDS011;7065;50.880;5.502;2023-02-18T08:49:18;9.50;;;2.45;;
13981;SDS011;7065;50.880;5.502;2023-02-18T08:51:48;8.57;;;2.28;;
13981;SDS011;7065;50.880;5.502;2023-02-18T08:54:15;5.75;;;1.92;;
13981;SDS011;7065;50.880;5.502;2023-02-18T08:56:41;8.02;;;2.40;;
13981;SDS011;7065;50.880;5.502;2023-02-18T08:59:07;8.35;;;2.42;;
13981;SDS011;7065;50.880;5.502;2023-02-18T09:01:33;6.25;;;2.20;;
13981;SDS011;7065;50.880;5.502;2023-02-18T09:03:58;8.15;;;2.50;;
13981;SDS011;7065;50.880;5.502;2023-02-18T09:06:25;10.98;;;3.08;;
13981;SDS011;7065;50.880;5.502;2023-02-18T09:08:51;11.23;;;2.80;;
13981;SDS011;7065;50.880;5.502;2023-02-18T09:11:17;6.70;;;2.33;;
13981;SDS011;7065;50.880;5.502;2023-02-18T09:13:43;12.18;;;2.58;;
13981;SDS011;7065;50.880;5.502;2023-02-18T09:16:15;9.95;;;2.83;;
13981;SDS011;7065;50.880;5.502;2023-02-18T09:18:42;7.05;;;2.65;;
13981;SDS011;7065;50.880;5.502;2023-02-18T09:21:10;11.60;;;3.78;;
13981;SDS011;7065;50.880;5.502;2023-02-18T09:23:37;10.15;;;2.55;;
13981;SDS011;7065;50.880;5.502;2023-02-18T09:26:04;9.38;;;2.45;;
13981;SDS011;7065;50.880;5.502;2023-02-18T09:28:31;8.05;;;2.83;;
13981;SDS011;7065;50.880;5.502;2023-02-18T09:30:57;9.23;;;3.03;;
13981;SDS011;7065;50.880;5.502;2023-02-18T09:33:27;10.30;;;3.45;;
13981;SDS011;7065;50.880;5.502;2023-02-18T09:35:53;10.00;;;3.60;;
13981;SDS011;7065;50.880;5.502;2023-02-18T09:38:19;8.82;;;4.80;;
13981;SDS011;7065;50.880;5.502;2023-02-18T09:40:46;11.00;;;4.45;;
13981;SDS011;7065;50.880;5.502;2023-02-18T09:43:21;10.18;;;3.50;;
13981;SDS011;7065;50.880;5.502;2023-02-18T09:45:59;7.18;;;2.67;;
13981;SDS011;7065;50.880;5.502;2023-02-18T09:48:28;8.80;;;2.53;;
13981;SDS011;7065;50.880;5.502;2023-02-18T09:51:00;8.80;;;2.60;;
13981;SDS011;7065;50.880;5.502;2023-02-18T09:53:26;9.07;;;2.20;;
13981;SDS011;7065;50.880;5.502;2023-02-18T09:55:52;4.60;;;1.90;;
13981;SDS011;7065;50.880;5.502;2023-02-18T09:58:29;5.95;;;1.77;;
13981;SDS011;7065;50.880;5.502;2023-02-18T10:03:42;5.95;;;1.90;;
13981;SDS011;7065;50.880;5.502;2023-02-18T10:06:10;4.30;;;1.77;;
13981;SDS011;7065;50.880;5.502;2023-02-18T10:08:42;3.72;;;1.88;;
13981;SDS011;7065;50.880;5.502;2023-02-18T10:11:15;7.90;;;2.65;;
13981;SDS011;7065;50.880;5.502;2023-02-18T10:13:47;7.88;;;3.70;;
13981;SDS011;7065;50.880;5.502;2023-02-18T10:16:15;5.82;;;4.20;;
13981;SDS011;7065;50.880;5.502;2023-02-18T10:18:43;9.60;;;4.00;;
13981;SDS011;7065;50.880;5.502;2023-02-18T10:21:20;6.53;;;4.65;;
13981;SDS011;7065;50.880;5.502;2023-02-18T10:26:36;6.53;;;4.70;;
13981;SDS011;7065;50.880;5.502;2023-02-18T10:29:02;7.78;;;4.97;;
13981;SDS011;7065;50.880;5.502;2023-02-18T10:31:37;6.38;;;4.38;;
13981;SDS011;7065;50.880;5.502;2023-02-18T10:36:43;8.65;;;3.70;;
13981;SDS011;7065;50.880;5.502;2023-02-18T10:42:19;10.35;;;4.80;;
13981;SDS011;7065;50.880;5.502;2023-02-18T10:47:37;12.98;;;6.05;;
13981;SDS011;7065;50.880;5.502;2023-02-18T10:50:15;10.95;;;5.65;;
13981;SDS011;7065;50.880;5.502;2023-02-18T10:53:06;8.90;;;6.57;;
13981;SDS011;7065;50.880;5.502;2023-02-18T10:55:51;11.95;;;7.80;;
13981;SDS011;7065;50.880;5.502;2023-02-18T11:00:52;9.93;;;6.80;;
13981;SDS011;7065;50.880;5.502;2023-02-18T11:03:19;9.05;;;7.10;;
13981;SDS011;7065;50.880;5.502;2023-02-18T11:05:47;12.77;;;6.70;;
13981;SDS011;7065;50.880;5.502;2023-02-18T11:08:20;10.18;;;5.97;;
13981;SDS011;7065;50.880;5.502;2023-02-18T11:10:51;8.52;;;5.57;;
13981;SDS011;7065;50.880;5.502;2023-02-18T11:13:27;11.85;;;6.70;;
13981;SDS011;7065;50.880;5.502;2023-02-18T11:21:28;8.80;;;6.07;;
13981;SDS011;7065;50.880;5.502;2023-02-18T11:23:55;11.35;;;8.30;;
13981;SDS011;7065;50.880;5.502;2023-02-18T11:26:31;10.23;;;7.20;;
13981;SDS011;7065;50.880;5.502;2023-02-18T11:29:04;10.32;;;8.00;;
13981;SDS011;7065;50.880;5.502;2023-02-18T11:31:38;9.80;;;8.63;;
13981;SDS011;7065;50.880;5.502;2023-02-18T11:34:13;11.27;;;8.00;;
13981;SDS011;7065;50.880;5.502;2023-02-18T11:36:42;12.60;;;7.57;;
13981;SDS011;7065;50.880;5.502;2023-02-18T11:41:55;14.25;;;7.68;;
13981;SDS011;7065;50.880;5.502;2023-02-18T11:44:27;15.88;;;8.38;;
13981;SDS011;7065;50.880;5.502;2023-02-18T11:47:16;10.77;;;7.35;;
13981;SDS011;7065;50.880;5.502;2023-02-18T11:49:59;14.00;;;7.53;;
13981;SDS011;7065;50.880;5.502;2023-02-18T11:52:26;9.73;;;7.13;;
13981;SDS011;7065;50.880;5.502;2023-02-18T11:57:42;16.90;;;7.43;;
13981;SDS011;7065;50.880;5.502;2023-02-18T12:02:46;7.63;;;6.63;;
13981;SDS011;7065;50.880;5.502;2023-02-18T12:05:15;10.95;;;6.18;;
13981;SDS011;7065;50.880;5.502;2023-02-18T12:10:42;12.13;;;6.35;;
13981;SDS011;7065;50.880;5.502;2023-02-18T12:13:27;12.65;;;7.53;;
13981;SDS011;7065;50.880;5.502;2023-02-18T12:16:06;11.88;;;6.82;;
13981;SDS011;7065;50.880;5.502;2023-02-18T12:32:01;12.60;;;7.45;;
13981;SDS011;7065;50.880;5.502;2023-02-18T12:51:17;14.13;;;6.93;;
13981;SDS011;7065;50.880;5.502;2023-02-18T12:56:36;17.92;;;7.38;;
13981;SDS011;7065;50.880;5.502;2023-02-18T13:02:38;9.90;;;6.82;;
13981;SDS011;7065;50.880;5.502;2023-02-18T13:08:00;11.23;;;8.25;;
13981;SDS011;7065;50.880;5.502;2023-02-18T13:16:23;7.78;;;6.97;;
13981;SDS011;7065;50.880;5.502;2023-02-18T13:19:01;11.57;;;6.82;;
13981;SDS011;7065;50.880;5.502;2023-02-18T13:21:28;12.63;;;7.15;;
13981;SDS011;7065;50.880;5.502;2023-02-18T13:23:56;10.52;;;6.93;;
13981;SDS011;7065;50.880;5.502;2023-02-18T13:26:25;12.52;;;7.38;;
13981;SDS011;7065;50.880;5.502;2023-02-18T13:31:41;13.10;;;7.60;;
13981;SDS011;7065;50.880;5.502;2023-02-18T13:40:20;11.73;;;7.55;;
13981;SDS011;7065;50.880;5.502;2023-02-18T13:42:51;15.75;;;9.23;;
13981;SDS011;7065;50.880;5.502;2023-02-18T13:45:28;12.40;;;7.90;;
13981;SDS011;7065;50.880;5.502;2023-02-18T13:47:58;12.93;;;8.13;;
13981;SDS011;7065;50.880;5.502;2023-02-18T13:50:26;15.85;;;8.15;;
13981;SDS011;7065;50.880;5.502;2023-02-18T13:58:30;15.90;;;9.00;;
13981;SDS011;7065;50.880;5.502;2023-02-18T14:01:02;16.58;;;9.07;;
13981;SDS011;7065;50.880;5.502;2023-02-18T14:06:13;16.98;;;8.70;;
13981;SDS011;7065;50.880;5.502;2023-02-18T14:08:41;16.15;;;8.15;;
13981;SDS011;7065;50.880;5.502;2023-02-18T14:13:41;12.00;;;8.20;;
13981;SDS011;7065;50.880;5.502;2023-02-18T14:16:08;13.52;;;8.00;;
13981;SDS011;7065;50.880;5.502;2023-02-18T14:33:41;12.52;;;6.93;;
13981;SDS011;7065;50.880;5.502;2023-02-18T14:39:29;15.63;;;7.18;;
13981;SDS011;7065;50.880;5.502;2023-02-18T14:50:20;9.82;;;6.10;;
13981;SDS011;7065;50.880;5.502;2023-02-18T14:52:47;10.05;;;6.53;;
13981;SDS011;7065;50.880;5.502;2023-02-18T14:55:23;11.52;;;6.85;;
13981;SDS011;7065;50.880;5.502;2023-02-18T14:57:53;9.60;;;5.97;;
13981;SDS011;7065;50.880;5.502;2023-02-18T15:00:38;9.23;;;6.65;;
13981;SDS011;7065;50.880;5.502;2023-02-18T15:03:13;12.88;;;6.85;;
13981;SDS011;7065;50.880;5.502;2023-02-18T15:05:43;7.78;;;5.97;;
13981;SDS011;7065;50.880;5.502;2023-02-18T15:08:14;10.85;;;6.50;;
13981;SDS011;7065;50.880;5.502;2023-02-18T15:10:42;9.85;;;5.82;;
13981;SDS011;7065;50.880;5.502;2023-02-18T15:13:25;14.15;;;6.70;;
13981;SDS011;7065;50.880;5.502;2023-02-18T15:15:58;10.70;;;6.55;;
13981;SDS011;7065;50.880;5.502;2023-02-18T15:18:39;8.18;;;6.30;;
13981;SDS011;7065;50.880;5.502;2023-02-18T15:21:08;10.98;;;6.68;;
13981;SDS011;7065;50.880;5.502;2023-02-18T15:23:44;11.63;;;6.18;;
13981;SDS011;7065;50.880;5.502;2023-02-18T15:26:14;12.65;;;6.70;;
13981;SDS011;7065;50.880;5.502;2023-02-18T15:28:41;10.70;;;6.57;;
13981;SDS011;7065;50.880;5.502;2023-02-18T15:31:15;9.07;;;6.10;;
13981;SDS011;7065;50.880;5.502;2023-02-18T15:33:42;11.18;;;6.53;;
13981;SDS011;7065;50.880;5.502;2023-02-18T15:36:08;14.23;;;6.75;;
13981;SDS011;7065;50.880;5.502;2023-02-18T15:38:38;10.95;;;6.60;;
13981;SDS011;7065;50.880;5.502;2023-02-18T15:41:09;12.80;;;6.85;;
13981;SDS011;7065;50.880;5.502;2023-02-18T15:43:37;12.98;;;6.35;;
13981;SDS011;7065;50.880;5.502;2023-02-18T15:46:09;9.20;;;7.03;;
13981;SDS011;7065;50.880;5.502;2023-02-18T15:48:42;8.38;;;6.65;;
13981;SDS011;7065;50.880;5.502;2023-02-18T15:51:12;9.77;;;7.25;;
13981;SDS011;7065;50.880;5.502;2023-02-18T15:53:41;12.35;;;6.97;;
13981;SDS011;7065;50.880;5.502;2023-02-18T15:56:14;11.23;;;6.57;;
13981;SDS011;7065;50.880;5.502;2023-02-18T16:01:49;14.25;;;7.97;;
13981;SDS011;7065;50.880;5.502;2023-02-18T16:04:18;14.32;;;7.55;;
13981;SDS011;7065;50.880;5.502;2023-02-18T16:06:47;11.48;;;7.32;;
13981;SDS011;7065;50.880;5.502;2023-02-18T16:09:17;10.75;;;7.55;;
13981;SDS011;7065;50.880;5.502;2023-02-18T16:11:47;12.68;;;7.38;;
13981;SDS011;7065;50.880;5.502;2023-02-18T16:14:29;13.75;;;6.80;;
13981;SDS011;7065;50.880;5.502;2023-02-18T16:22:21;14.45;;;6.97;;
13981;SDS011;7065;50.880;5.502;2023-02-18T16:27:47;9.80;;;7.07;;
13981;SDS011;7065;50.880;5.502;2023-02-18T16:30:21;12.45;;;7.40;;
13981;SDS011;7065;50.880;5.502;2023-02-18T16:32:49;11.60;;;7.85;;
13981;SDS011;7065;50.880;5.502;2023-02-18T16:35:16;10.88;;;7.32;;
13981;SDS011;7065;50.880;5.502;2023-02-18T16:37:42;14.57;;;7.75;;
13981;SDS011;7065;50.880;5.502;2023-02-18T16:40:20;12.38;;;7.82;;
13981;SDS011;7065;50.880;5.502;2023-02-18T16:42:51;11.82;;;8.20;;
13981;SDS011;7065;50.880;5.502;2023-02-18T16:45:18;16.35;;;7.97;;
13981;SDS011;7065;50.880;5.502;2023-02-18T16:47:46;13.52;;;8.25;;
13981;SDS011;7065;50.880;5.502;2023-02-18T16:50:13;12.32;;;8.75;;
13981;SDS011;7065;50.880;5.502;2023-02-18T16:52:43;12.90;;;8.77;;
13981;SDS011;7065;50.880;5.502;2023-02-18T16:55:19;18.42;;;8.88;;
13981;SDS011;7065;50.880;5.502;2023-02-18T16:57:46;15.43;;;9.02;;
13981;SDS011;7065;50.880;5.502;2023-02-18T17:00:13;10.80;;;8.40;;
13981;SDS011;7065;50.880;5.502;2023-02-18T17:02:39;11.70;;;8.10;;
13981;SDS011;7065;50.880;5.502;2023-02-18T17:05:07;14.07;;;7.95;;
13981;SDS011;7065;50.880;5.502;2023-02-18T17:07:33;14.93;;;8.55;;
13981;SDS011;7065;50.880;5.502;2023-02-18T17:10:00;13.15;;;8.00;;
13981;SDS011;7065;50.880;5.502;2023-02-18T17:12:27;12.88;;;9.40;;
13981;SDS011;7065;50.880;5.502;2023-02-18T17:14:52;12.60;;;8.25;;
13981;SDS011;7065;50.880;5.502;2023-02-18T17:17:18;16.38;;;8.73;;
13981;SDS011;7065;50.880;5.502;2023-02-18T17:19:49;14.55;;;9.70;;
13981;SDS011;7065;50.880;5.502;2023-02-18T17:22:15;14.68;;;9.02;;
13981;SDS011;7065;50.880;5.502;2023-02-18T17:24:41;15.70;;;10.30;;
13981;SDS011;7065;50.880;5.502;2023-02-18T17:27:08;13.13;;;9.45;;
13981;SDS011;7065;50.880;5.502;2023-02-18T17:29:35;13.82;;;9.63;;
13981;SDS011;7065;50.880;5.502;2023-02-18T17:32:00;14.20;;;9.68;;
13981;SDS011;7065;50.880;5.502;2023-02-18T17:34:30;12.52;;;9.07;;
13981;SDS011;7065;50.880;5.502;2023-02-18T17:36:56;14.07;;;9.75;;
13981;SDS011;7065;50.880;5.502;2023-02-18T17:39:22;11.45;;;9.40;;
13981;SDS011;7065;50.880;5.502;2023-02-18T17:41:48;11.63;;;8.98;;
13981;SDS011;7065;50.880;5.502;2023-02-18T17:44:15;12.15;;;8.77;;
13981;SDS011;7065;50.880;5.502;2023-02-18T17:46:41;11.95;;;9.25;;
13981;SDS011;7065;50.880;5.502;2023-02-18T17:49:07;11.95;;;7.95;;
13981;SDS011;7065;50.880;5.502;2023-02-18T17:51:33;12.65;;;8.70;;
13981;SDS011;7065;50.880;5.502;2023-02-18T17:54:12;12.10;;;8.02;;
13981;SDS011;7065;50.880;5.502;2023-02-18T17:56:42;10.70;;;7.97;;
13981;SDS011;7065;50.880;5.502;2023-02-18T17:59:08;13.27;;;9.02;;